sensor_id;sensor_type;location;lat;lon;timestamp;P1;durP1;ratioP1;P2;durP2;ratioP2
75038;SDS011;63609;49.992;14.512;2024-03-29T00:01:16;2.53;;;1.58;;
75038;SDS011;63609;49.992;14.512;2024-03-29T00:03:42;4.43;;;1.45;;
75038;SDS011;63609;49.992;14.512;2024-03-29T00:06:08;2.38;;;1.30;;
75038;SDS011;63609;49.992;14.512;2024-03-29T00:08:34;2.13;;;1.08;;
75038;SDS011;63609;49.992;14.512;2024-03-29T00:11:00;5.20;;;1.95;;
75038;SDS011;63609;49.992;14.512;2024-03-29T00:13:26;4.13;;;1.60;;
75038;SDS011;63609;49.992;14.512;2024-03-29T00:15:52;2.25;;;1.30;;
75038;SDS011;63609;49.992;14.512;2024-03-29T00:18:18;1.98;;;1.00;;
75038;SDS011;63609;49.992;14.512;2024-03-29T00:20:44;2.15;;;1.38;;
75038;SDS011;63609;49.992;14.512;2024-03-29T00:23:10;1.60;;;1.10;;
75038;SDS011;63609;49.992;14.512;2024-03-29T00:25:35;2.22;;;1.17;;
75038;SDS011;63609;49.992;14.512;2024-03-29T00:28:02;3.85;;;1.70;;
75038;SDS011;63609;49.992;14.512;2024-03-29T00:30:29;2.08;;;1.40;;
75038;SDS011;63609;49.992;14.512;2024-03-29T00:32:54;2.63;;;1.00;;
75038;SDS011;63609;49.992;14.512;2024-03-29T00:35:20;2.45;;;1.30;;
75038;SDS011;63609;49.992;14.512;2024-03-29T00:37:48;2.88;;;1.20;;
75038;SDS011;63609;49.992;14.512;2024-03-29T00:42:41;2.20;;;1.17;;
75038;SDS011;63609;49.992;14.512;2024-03-29T00:45:07;2.80;;;1.02;;
75038;SDS011;63609;49.992;14.512;2024-03-29T00:47:33;2.03;;;1.17;;
75038;SDS011;63609;49.992;14.512;2024-03-29T00:50:00;2.72;;;1.50;;
75038;SDS011;63609;49.992;14.512;2024-03-29T00:52:28;2.50;;;1.45;;
75038;SDS011;63609;49.992;14.512;2024-03-29T00:54:56;2.60;;;1.45;;
75038;SDS011;63609;49.992;14.512;2024-03-29T00:57:21;2.28;;;1.10;;
75038;SDS011;63609;49.992;14.512;2024-03-29T00:59:48;2.22;;;1.10;;
75038;SDS011;63609;49.992;14.512;2024-03-29T01:03:33;2.80;;;1.05;;
75038;SDS011;63609;49.992;14.512;2024-03-29T01:05:58;1.35;;;0.80;;
75038;SDS011;63609;49.992;14.512;2024-03-29T01:08:24;1.75;;;1.00;;
75038;SDS011;63609;49.992;14.512;2024-03-29T01:10:50;2.05;;;1.02;;
75038;SDS011;63609;49.992;14.512;2024-03-29T01:13:16;2.50;;;1.42;;
75038;SDS011;63609;49.992;14.512;2024-03-29T01:15:42;2.60;;;1.58;;
75038;SDS011;63609;49.992;14.512;2024-03-29T01:18:08;2.20;;;1.00;;
75038;SDS011;63609;49.992;14.512;2024-03-29T01:20:36;2.20;;;0.90;;
75038;SDS011;63609;49.992;14.512;2024-03-29T01:23:02;3.35;;;1.38;;
75038;SDS011;63609;49.992;14.512;2024-03-29T01:25:27;3.15;;;1.90;;
75038;SDS011;63609;49.992;14.512;2024-03-29T01:27:55;2.67;;;1.17;;
75038;SDS011;63609;49.992;14.512;2024-03-29T01:30:20;3.40;;;1.48;;
75038;SDS011;63609;49.992;14.512;2024-03-29T01:32:48;2.90;;;1.65;;
75038;SDS011;63609;49.992;14.512;2024-03-29T01:35:14;2.28;;;1.50;;
75038;SDS011;63609;49.992;14.512;2024-03-29T01:37:40;3.35;;;1.40;;
75038;SDS011;63609;49.992;14.512;2024-03-29T01:40:06;2.63;;;1.52;;
75038;SDS011;63609;49.992;14.512;2024-03-29T01:42:33;2.85;;;1.67;;
75038;SDS011;63609;49.992;14.512;2024-03-29T01:44:59;3.53;;;1.58;;
75038;SDS011;63609;49.992;14.512;2024-03-29T01:47:25;2.97;;;1.60;;
75038;SDS011;63609;49.992;14.512;2024-03-29T01:49:51;3.47;;;1.80;;
75038;SDS011;63609;49.992;14.512;2024-03-29T01:52:17;3.40;;;1.60;;
75038;SDS011;63609;49.992;14.512;2024-03-29T01:54:45;2.28;;;1.30;;
75038;SDS011;63609;49.992;14.512;2024-03-29T01:57:12;2.65;;;1.70;;
75038;SDS011;63609;49.992;14.512;2024-03-29T01:59:40;2.03;;;1.00;;
75038;SDS011;63609;49.992;14.512;2024-03-29T02:02:08;3.42;;;1.27;;
75038;SDS011;63609;49.992;14.512;2024-03-29T02:07:01;2.40;;;1.10;;
75038;SDS011;63609;49.992;14.512;2024-03-29T02:09:29;4.13;;;1.25;;
75038;SDS011;63609;49.992;14.512;2024-03-29T02:11:55;3.85;;;1.20;;
75038;SDS011;63609;49.992;14.512;2024-03-29T02:14:22;3.05;;;1.40;;
75038;SDS011;63609;49.992;14.512;2024-03-29T02:16:47;3.97;;;1.60;;
75038;SDS011;63609;49.992;14.512;2024-03-29T02:19:14;4.32;;;1.40;;
75038;SDS011;63609;49.992;14.512;2024-03-29T02:21:42;2.20;;;1.15;;
75038;SDS011;63609;49.992;14.512;2024-03-29T02:24:11;2.75;;;1.05;;
75038;SDS011;63609;49.992;14.512;2024-03-29T02:26:41;2.88;;;1.20;;
75038;SDS011;63609;49.992;14.512;2024-03-29T02:29:08;2.60;;;1.20;;
75038;SDS011;63609;49.992;14.512;2024-03-29T02:31:38;4.47;;;1.15;;
75038;SDS011;63609;49.992;14.512;2024-03-29T02:34:04;1.60;;;1.00;;
75038;SDS011;63609;49.992;14.512;2024-03-29T02:36:29;1.77;;;0.95;;
75038;SDS011;63609;49.992;14.512;2024-03-29T02:38:55;2.10;;;1.02;;
75038;SDS011;63609;49.992;14.512;2024-03-29T02:41:21;1.75;;;0.90;;
75038;SDS011;63609;49.992;14.512;2024-03-29T02:46:13;2.15;;;1.10;;
75038;SDS011;63609;49.992;14.512;2024-03-29T02:48:39;1.42;;;0.88;;
75038;SDS011;63609;49.992;14.512;2024-03-29T02:51:05;2.63;;;1.40;;
75038;SDS011;63609;49.992;14.512;2024-03-29T02:53:31;2.78;;;1.23;;
75038;SDS011;63609;49.992;14.512;2024-03-29T02:55:56;3.40;;;1.10;;
75038;SDS011;63609;49.992;14.512;2024-03-29T02:58:22;2.70;;;1.30;;
75038;SDS011;63609;49.992;14.512;2024-03-29T03:00:48;2.45;;;1.13;;
75038;SDS011;63609;49.992;14.512;2024-03-29T03:03:15;2.25;;;1.20;;
75038;SDS011;63609;49.992;14.512;2024-03-29T03:05:42;1.92;;;1.10;;
75038;SDS011;63609;49.992;14.512;2024-03-29T03:08:08;2.65;;;1.00;;
75038;SDS011;63609;49.992;14.512;2024-03-29T03:10:52;2.05;;;1.02;;
75038;SDS011;63609;49.992;14.512;2024-03-29T03:13:21;2.15;;;0.90;;
75038;SDS011;63609;49.992;14.512;2024-03-29T03:15:47;2.72;;;1.10;;
75038;SDS011;63609;49.992;14.512;2024-03-29T03:18:13;1.88;;;0.88;;
75038;SDS011;63609;49.992;14.512;2024-03-29T03:20:39;1.67;;;0.90;;
75038;SDS011;63609;49.992;14.512;2024-03-29T03:23:05;1.80;;;0.95;;
75038;SDS011;63609;49.992;14.512;2024-03-29T03:25:31;2.53;;;1.20;;
75038;SDS011;63609;49.992;14.512;2024-03-29T03:27:57;2.15;;;0.90;;
75038;SDS011;63609;49.992;14.512;2024-03-29T03:30:23;1.45;;;0.98;;
75038;SDS011;63609;49.992;14.512;2024-03-29T03:32:48;1.58;;;0.85;;
75038;SDS011;63609;49.992;14.512;2024-03-29T03:35:14;1.60;;;0.90;;
75038;SDS011;63609;49.992;14.512;2024-03-29T03:37:40;1.58;;;1.05;;
75038;SDS011;63609;49.992;14.512;2024-03-29T03:40:06;3.75;;;1.20;;
75038;SDS011;63609;49.992;14.512;2024-03-29T03:42:32;3.78;;;1.20;;
75038;SDS011;63609;49.992;14.512;2024-03-29T03:44:58;1.70;;;1.08;;
75038;SDS011;63609;49.992;14.512;2024-03-29T03:47:24;1.67;;;1.00;;
75038;SDS011;63609;49.992;14.512;2024-03-29T03:49:50;1.33;;;0.90;;
75038;SDS011;63609;49.992;14.512;2024-03-29T03:52:16;2.25;;;1.42;;
75038;SDS011;63609;49.992;14.512;2024-03-29T03:54:41;2.15;;;1.30;;
75038;SDS011;63609;49.992;14.512;2024-03-29T03:57:07;2.20;;;1.25;;
75038;SDS011;63609;49.992;14.512;2024-03-29T03:59:33;3.47;;;1.50;;
75038;SDS011;63609;49.992;14.512;2024-03-29T04:01:59;1.60;;;0.88;;
75038;SDS011;63609;49.992;14.512;2024-03-29T04:04:25;2.25;;;1.25;;
75038;SDS011;63609;49.992;14.512;2024-03-29T04:06:50;1.45;;;0.80;;
75038;SDS011;63609;49.992;14.512;2024-03-29T04:09:16;2.80;;;0.95;;
75038;SDS011;63609;49.992;14.512;2024-03-29T04:11:43;2.42;;;1.75;;
75038;SDS011;63609;49.992;14.512;2024-03-29T04:14:09;2.83;;;1.58;;
75038;SDS011;63609;49.992;14.512;2024-03-29T04:16:35;1.88;;;1.00;;
75038;SDS011;63609;49.992;14.512;2024-03-29T04:19:01;2.83;;;1.30;;
75038;SDS011;63609;49.992;14.512;2024-03-29T04:21:26;3.00;;;1.08;;
75038;SDS011;63609;49.992;14.512;2024-03-29T04:23:52;1.55;;;0.82;;
75038;SDS011;63609;49.992;14.512;2024-03-29T04:26:18;4.07;;;1.52;;
75038;SDS011;63609;49.992;14.512;2024-03-29T04:28:44;1.83;;;1.08;;
75038;SDS011;63609;49.992;14.512;2024-03-29T04:31:10;2.33;;;1.08;;
75038;SDS011;63609;49.992;14.512;2024-03-29T04:33:37;5.10;;;1.15;;
75038;SDS011;63609;49.992;14.512;2024-03-29T04:36:03;1.90;;;1.10;;
75038;SDS011;63609;49.992;14.512;2024-03-29T04:38:30;3.15;;;1.25;;
75038;SDS011;63609;49.992;14.512;2024-03-29T04:43:24;1.70;;;0.82;;
75038;SDS011;63609;49.992;14.512;2024-03-29T04:46:01;1.55;;;0.85;;
75038;SDS011;63609;49.992;14.512;2024-03-29T04:48:37;2.08;;;0.95;;
75038;SDS011;63609;49.992;14.512;2024-03-29T04:51:03;1.90;;;1.10;;
75038;SDS011;63609;49.992;14.512;2024-03-29T04:53:30;1.98;;;0.98;;
75038;SDS011;63609;49.992;14.512;2024-03-29T04:55:56;3.75;;;1.20;;
75038;SDS011;63609;49.992;14.512;2024-03-29T04:58:26;1.55;;;1.00;;
75038;SDS011;63609;49.992;14.512;2024-03-29T05:00:53;1.95;;;0.98;;
75038;SDS011;63609;49.992;14.512;2024-03-29T05:03:20;2.08;;;0.98;;
75038;SDS011;63609;49.992;14.512;2024-03-29T05:08:13;2.22;;;1.10;;
75038;SDS011;63609;49.992;14.512;2024-03-29T05:10:39;2.30;;;0.70;;
75038;SDS011;63609;49.992;14.512;2024-03-29T05:13:05;2.70;;;1.10;;
75038;SDS011;63609;49.992;14.512;2024-03-29T05:15:32;1.15;;;0.80;;
75038;SDS011;63609;49.992;14.512;2024-03-29T05:17:58;1.92;;;1.13;;
75038;SDS011;63609;49.992;14.512;2024-03-29T05:20:24;1.02;;;0.57;;
75038;SDS011;63609;49.992;14.512;2024-03-29T05:22:50;2.55;;;1.33;;
75038;SDS011;63609;49.992;14.512;2024-03-29T05:25:16;2.30;;;0.93;;
75038;SDS011;63609;49.992;14.512;2024-03-29T05:27:42;1.13;;;0.55;;
75038;SDS011;63609;49.992;14.512;2024-03-29T05:30:08;2.70;;;1.52;;
75038;SDS011;63609;49.992;14.512;2024-03-29T05:32:38;0.88;;;0.50;;
75038;SDS011;63609;49.992;14.512;2024-03-29T05:35:04;1.48;;;0.82;;
75038;SDS011;63609;49.992;14.512;2024-03-29T05:37:31;1.05;;;0.60;;
75038;SDS011;63609;49.992;14.512;2024-03-29T05:39:57;0.95;;;0.65;;
75038;SDS011;63609;49.992;14.512;2024-03-29T05:42:29;1.65;;;0.75;;
75038;SDS011;63609;49.992;14.512;2024-03-29T05:44:57;1.27;;;0.68;;
75038;SDS011;63609;49.992;14.512;2024-03-29T05:47:23;1.80;;;1.02;;
75038;SDS011;63609;49.992;14.512;2024-03-29T05:49:49;2.35;;;0.85;;
75038;SDS011;63609;49.992;14.512;2024-03-29T05:52:16;1.58;;;0.70;;
75038;SDS011;63609;49.992;14.512;2024-03-29T05:54:42;1.00;;;0.60;;
75038;SDS011;63609;49.992;14.512;2024-03-29T05:57:09;4.90;;;1.10;;
75038;SDS011;63609;49.992;14.512;2024-03-29T05:59:36;1.50;;;0.68;;
75038;SDS011;63609;49.992;14.512;2024-03-29T06:02:02;1.95;;;0.80;;
75038;SDS011;63609;49.992;14.512;2024-03-29T06:04:28;1.00;;;0.70;;
75038;SDS011;63609;49.992;14.512;2024-03-29T06:09:27;2.30;;;0.77;;
75038;SDS011;63609;49.992;14.512;2024-03-29T06:11:54;2.88;;;0.70;;
75038;SDS011;63609;49.992;14.512;2024-03-29T06:14:21;1.30;;;0.55;;
75038;SDS011;63609;49.992;14.512;2024-03-29T06:17:07;1.40;;;0.80;;
75038;SDS011;63609;49.992;14.512;2024-03-29T06:19:52;1.85;;;0.82;;
75038;SDS011;63609;49.992;14.512;2024-03-29T06:22:23;1.23;;;0.65;;
75038;SDS011;63609;49.992;14.512;2024-03-29T06:27:17;1.45;;;0.70;;
75038;SDS011;63609;49.992;14.512;2024-03-29T06:29:46;0.98;;;0.73;;
75038;SDS011;63609;49.992;14.512;2024-03-29T06:32:12;1.90;;;1.00;;
75038;SDS011;63609;49.992;14.512;2024-03-29T06:34:39;0.60;;;0.40;;
75038;SDS011;63609;49.992;14.512;2024-03-29T06:37:04;3.60;;;1.05;;
75038;SDS011;63609;49.992;14.512;2024-03-29T06:39:30;2.65;;;0.77;;
75038;SDS011;63609;49.992;14.512;2024-03-29T06:41:56;1.17;;;0.70;;
75038;SDS011;63609;49.992;14.512;2024-03-29T06:44:22;1.70;;;1.00;;
75038;SDS011;63609;49.992;14.512;2024-03-29T06:46:48;3.13;;;0.68;;
75038;SDS011;63609;49.992;14.512;2024-03-29T06:49:14;2.63;;;0.70;;
75038;SDS011;63609;49.992;14.512;2024-03-29T06:51:40;4.20;;;0.82;;
75038;SDS011;63609;49.992;14.512;2024-03-29T06:54:06;1.30;;;0.73;;
75038;SDS011;63609;49.992;14.512;2024-03-29T06:56:32;2.67;;;0.98;;
75038;SDS011;63609;49.992;14.512;2024-03-29T06:58:58;1.27;;;0.70;;
75038;SDS011;63609;49.992;14.512;2024-03-29T07:01:25;1.55;;;0.47;;
75038;SDS011;63609;49.992;14.512;2024-03-29T07:03:50;0.82;;;0.50;;
75038;SDS011;63609;49.992;14.512;2024-03-29T07:06:16;2.30;;;0.82;;
75038;SDS011;63609;49.992;14.512;2024-03-29T07:08:42;1.55;;;0.60;;
75038;SDS011;63609;49.992;14.512;2024-03-29T07:11:08;1.23;;;0.45;;
75038;SDS011;63609;49.992;14.512;2024-03-29T07:13:35;1.17;;;0.73;;
75038;SDS011;63609;49.992;14.512;2024-03-29T07:16:01;2.08;;;0.65;;
75038;SDS011;63609;49.992;14.512;2024-03-29T07:18:27;0.82;;;0.47;;
75038;SDS011;63609;49.992;14.512;2024-03-29T07:20:53;1.13;;;0.70;;
75038;SDS011;63609;49.992;14.512;2024-03-29T07:23:19;1.10;;;0.50;;
75038;SDS011;63609;49.992;14.512;2024-03-29T07:25:56;1.63;;;0.55;;
75038;SDS011;63609;49.992;14.512;2024-03-29T07:28:26;1.55;;;0.68;;
75038;SDS011;63609;49.992;14.512;2024-03-29T07:33:20;3.35;;;0.55;;
75038;SDS011;63609;49.992;14.512;2024-03-29T07:35:49;1.08;;;0.52;;
75038;SDS011;63609;49.992;14.512;2024-03-29T07:38:15;1.33;;;0.52;;
75038;SDS011;63609;49.992;14.512;2024-03-29T07:40:46;2.00;;;0.77;;
75038;SDS011;63609;49.992;14.512;2024-03-29T07:43:13;0.75;;;0.57;;
75038;SDS011;63609;49.992;14.512;2024-03-29T07:45:42;0.60;;;0.40;;
75038;SDS011;63609;49.992;14.512;2024-03-29T07:48:12;1.02;;;0.55;;
75038;SDS011;63609;49.992;14.512;2024-03-29T07:50:39;0.90;;;0.40;;
75038;SDS011;63609;49.992;14.512;2024-03-29T07:55:31;1.52;;;0.60;;
75038;SDS011;63609;49.992;14.512;2024-03-29T07:57:57;0.88;;;0.40;;
75038;SDS011;63609;49.992;14.512;2024-03-29T08:00:25;1.45;;;0.43;;
75038;SDS011;63609;49.992;14.512;2024-03-29T08:02:51;2.45;;;0.70;;
75038;SDS011;63609;49.992;14.512;2024-03-29T08:05:22;2.38;;;0.77;;
75038;SDS011;63609;49.992;14.512;2024-03-29T08:07:47;1.17;;;0.50;;
75038;SDS011;63609;49.992;14.512;2024-03-29T08:10:14;0.90;;;0.40;;
75038;SDS011;63609;49.992;14.512;2024-03-29T08:12:40;1.85;;;0.60;;
75038;SDS011;63609;49.992;14.512;2024-03-29T08:15:06;1.13;;;0.50;;
75038;SDS011;63609;49.992;14.512;2024-03-29T08:17:34;1.13;;;0.55;;
75038;SDS011;63609;49.992;14.512;2024-03-29T08:20:00;0.63;;;0.40;;
75038;SDS011;63609;49.992;14.512;2024-03-29T08:22:26;3.03;;;0.52;;
75038;SDS011;63609;49.992;14.512;2024-03-29T08:24:54;1.05;;;0.55;;
75038;SDS011;63609;49.992;14.512;2024-03-29T08:27:20;0.82;;;0.47;;
75038;SDS011;63609;49.992;14.512;2024-03-29T08:29:46;0.70;;;0.35;;
75038;SDS011;63609;49.992;14.512;2024-03-29T08:32:14;2.33;;;0.77;;
75038;SDS011;63609;49.992;14.512;2024-03-29T08:34:40;1.08;;;0.60;;
75038;SDS011;63609;49.992;14.512;2024-03-29T08:37:06;1.67;;;0.65;;
75038;SDS011;63609;49.992;14.512;2024-03-29T08:39:32;1.23;;;0.60;;
75038;SDS011;63609;49.992;14.512;2024-03-29T08:41:58;1.95;;;0.80;;
75038;SDS011;63609;49.992;14.512;2024-03-29T08:44:24;2.45;;;1.00;;
75038;SDS011;63609;49.992;14.512;2024-03-29T08:46:51;1.05;;;0.55;;
75038;SDS011;63609;49.992;14.512;2024-03-29T08:49:19;0.77;;;0.60;;
75038;SDS011;63609;49.992;14.512;2024-03-29T08:51:44;1.35;;;0.80;;
75038;SDS011;63609;49.992;14.512;2024-03-29T08:54:11;2.50;;;0.47;;
75038;SDS011;63609;49.992;14.512;2024-03-29T08:56:36;1.23;;;0.60;;
75038;SDS011;63609;49.992;14.512;2024-03-29T08:59:03;1.05;;;0.50;;
75038;SDS011;63609;49.992;14.512;2024-03-29T09:01:36;0.88;;;0.52;;
75038;SDS011;63609;49.992;14.512;2024-03-29T09:04:03;0.50;;;0.20;;
75038;SDS011;63609;49.992;14.512;2024-03-29T09:06:32;1.63;;;0.63;;
75038;SDS011;63609;49.992;14.512;2024-03-29T09:08:59;1.65;;;0.90;;
75038;SDS011;63609;49.992;14.512;2024-03-29T09:11:25;0.98;;;0.50;;
75038;SDS011;63609;49.992;14.512;2024-03-29T09:13:50;1.23;;;0.60;;
75038;SDS011;63609;49.992;14.512;2024-03-29T09:16:16;0.98;;;0.50;;
75038;SDS011;63609;49.992;14.512;2024-03-29T09:18:43;0.90;;;0.38;;
75038;SDS011;63609;49.992;14.512;2024-03-29T09:21:08;0.77;;;0.35;;
75038;SDS011;63609;49.992;14.512;2024-03-29T09:23:36;1.95;;;0.65;;
75038;SDS011;63609;49.992;14.512;2024-03-29T09:26:07;0.95;;;0.40;;
75038;SDS011;63609;49.992;14.512;2024-03-29T09:28:33;1.02;;;0.43;;
75038;SDS011;63609;49.992;14.512;2024-03-29T09:31:00;0.70;;;0.25;;
75038;SDS011;63609;49.992;14.512;2024-03-29T09:33:27;0.40;;;0.32;;
75038;SDS011;63609;49.992;14.512;2024-03-29T09:35:54;2.58;;;0.60;;
75038;SDS011;63609;49.992;14.512;2024-03-29T09:38:20;0.52;;;0.40;;
75038;SDS011;63609;49.992;14.512;2024-03-29T09:40:46;0.93;;;0.47;;
75038;SDS011;63609;49.992;14.512;2024-03-29T09:43:26;1.38;;;0.57;;
75038;SDS011;63609;49.992;14.512;2024-03-29T09:45:54;2.45;;;0.40;;
75038;SDS011;63609;49.992;14.512;2024-03-29T09:48:20;1.00;;;0.45;;
75038;SDS011;63609;49.992;14.512;2024-03-29T09:50:47;1.00;;;0.40;;
75038;SDS011;63609;49.992;14.512;2024-03-29T09:53:15;1.33;;;0.60;;
75038;SDS011;63609;49.992;14.512;2024-03-29T09:55:43;1.00;;;0.45;;
75038;SDS011;63609;49.992;14.512;2024-03-29T09:58:10;1.08;;;0.43;;
75038;SDS011;63609;49.992;14.512;2024-03-29T10:00:36;1.13;;;0.50;;
75038;SDS011;63609;49.992;14.512;2024-03-29T10:03:02;2.80;;;0.65;;
75038;SDS011;63609;49.992;14.512;2024-03-29T10:05:30;3.10;;;0.47;;
75038;SDS011;63609;49.992;14.512;2024-03-29T10:07:57;0.90;;;0.40;;
75038;SDS011;63609;49.992;14.512;2024-03-29T10:10:31;0.90;;;0.30;;
75038;SDS011;63609;49.992;14.512;2024-03-29T10:12:58;1.05;;;0.43;;
75038;SDS011;63609;49.992;14.512;2024-03-29T10:15:24;1.35;;;0.45;;
75038;SDS011;63609;49.992;14.512;2024-03-29T10:17:53;0.75;;;0.45;;
75038;SDS011;63609;49.992;14.512;2024-03-29T10:20:19;1.05;;;0.60;;
75038;SDS011;63609;49.992;14.512;2024-03-29T10:22:46;0.70;;;0.47;;
75038;SDS011;63609;49.992;14.512;2024-03-29T10:25:15;0.55;;;0.50;;
75038;SDS011;63609;49.992;14.512;2024-03-29T10:27:44;2.40;;;0.30;;
75038;SDS011;63609;49.992;14.512;2024-03-29T10:30:10;2.17;;;0.47;;
75038;SDS011;63609;49.992;14.512;2024-03-29T10:32:43;0.90;;;0.50;;
75038;SDS011;63609;49.992;14.512;2024-03-29T10:35:09;0.60;;;0.30;;
75038;SDS011;63609;49.992;14.512;2024-03-29T10:37:38;0.35;;;0.17;;
75038;SDS011;63609;49.992;14.512;2024-03-29T10:40:06;0.80;;;0.50;;
75038;SDS011;63609;49.992;14.512;2024-03-29T10:42:33;6.80;;;1.02;;
75038;SDS011;63609;49.992;14.512;2024-03-29T10:45:02;1.52;;;0.80;;
75038;SDS011;63609;49.992;14.512;2024-03-29T10:47:31;0.80;;;0.40;;
75038;SDS011;63609;49.992;14.512;2024-03-29T10:50:06;0.77;;;0.30;;
75038;SDS011;63609;49.992;14.512;2024-03-29T10:52:35;1.70;;;0.60;;
75038;SDS011;63609;49.992;14.512;2024-03-29T10:55:10;1.15;;;0.50;;
75038;SDS011;63609;49.992;14.512;2024-03-29T10:57:39;1.77;;;0.30;;
75038;SDS011;63609;49.992;14.512;2024-03-29T11:05:23;1.27;;;0.43;;
75038;SDS011;63609;49.992;14.512;2024-03-29T11:07:51;1.08;;;0.40;;
75038;SDS011;63609;49.992;14.512;2024-03-29T11:10:25;1.17;;;0.30;;
75038;SDS011;63609;49.992;14.512;2024-03-29T11:15:28;1.05;;;0.40;;
75038;SDS011;63609;49.992;14.512;2024-03-29T11:17:55;2.13;;;0.52;;
75038;SDS011;63609;49.992;14.512;2024-03-29T11:20:23;0.90;;;0.40;;
75038;SDS011;63609;49.992;14.512;2024-03-29T11:23:02;0.80;;;0.30;;
75038;SDS011;63609;49.992;14.512;2024-03-29T11:25:43;2.20;;;0.55;;
75038;SDS011;63609;49.992;14.512;2024-03-29T11:28:14;1.30;;;0.40;;
75038;SDS011;63609;49.992;14.512;2024-03-29T11:30:47;1.98;;;0.47;;
75038;SDS011;63609;49.992;14.512;2024-03-29T11:33:27;2.42;;;0.45;;
75038;SDS011;63609;49.992;14.512;2024-03-29T11:35:57;1.35;;;0.55;;
75038;SDS011;63609;49.992;14.512;2024-03-29T11:38:31;1.33;;;0.50;;
75038;SDS011;63609;49.992;14.512;2024-03-29T11:41:06;1.52;;;0.40;;
75038;SDS011;63609;49.992;14.512;2024-03-29T11:43:33;1.52;;;0.47;;
75038;SDS011;63609;49.992;14.512;2024-03-29T11:46:01;0.73;;;0.52;;
75038;SDS011;63609;49.992;14.512;2024-03-29T11:48:29;1.58;;;0.40;;
75038;SDS011;63609;49.992;14.512;2024-03-29T11:50:59;1.42;;;0.55;;
75038;SDS011;63609;49.992;14.512;2024-03-29T11:53:29;1.27;;;0.30;;
75038;SDS011;63609;49.992;14.512;2024-03-29T11:55:59;1.38;;;0.47;;
75038;SDS011;63609;49.992;14.512;2024-03-29T11:58:27;1.02;;;0.55;;
75038;SDS011;63609;49.992;14.512;2024-03-29T12:00:54;1.17;;;0.50;;
75038;SDS011;63609;49.992;14.512;2024-03-29T12:03:21;1.17;;;0.45;;
75038;SDS011;63609;49.992;14.512;2024-03-29T12:05:48;0.80;;;0.40;;
75038;SDS011;63609;49.992;14.512;2024-03-29T12:08:33;0.70;;;0.40;;
75038;SDS011;63609;49.992;14.512;2024-03-29T12:11:08;1.50;;;0.40;;
75038;SDS011;63609;49.992;14.512;2024-03-29T12:13:34;0.88;;;0.50;;
75038;SDS011;63609;49.992;14.512;2024-03-29T12:16:00;0.45;;;0.10;;
75038;SDS011;63609;49.992;14.512;2024-03-29T12:18:27;0.47;;;0.28;;
75038;SDS011;63609;49.992;14.512;2024-03-29T12:21:00;0.80;;;0.40;;
75038;SDS011;63609;49.992;14.512;2024-03-29T12:23:26;0.82;;;0.30;;
75038;SDS011;63609;49.992;14.512;2024-03-29T12:25:53;0.45;;;0.20;;
75038;SDS011;63609;49.992;14.512;2024-03-29T12:28:24;0.50;;;0.30;;
75038;SDS011;63609;49.992;14.512;2024-03-29T12:30:51;1.10;;;0.50;;
75038;SDS011;63609;49.992;14.512;2024-03-29T12:33:28;0.93;;;0.50;;
75038;SDS011;63609;49.992;14.512;2024-03-29T12:35:55;0.98;;;0.40;;
75038;SDS011;63609;49.992;14.512;2024-03-29T12:38:21;0.63;;;0.35;;
75038;SDS011;63609;49.992;14.512;2024-03-29T12:40:49;1.55;;;0.50;;
75038;SDS011;63609;49.992;14.512;2024-03-29T12:43:22;1.02;;;0.32;;
75038;SDS011;63609;49.992;14.512;2024-03-29T12:45:49;1.15;;;0.60;;
75038;SDS011;63609;49.992;14.512;2024-03-29T12:48:17;1.27;;;0.50;;
75038;SDS011;63609;49.992;14.512;2024-03-29T12:50:48;1.27;;;0.50;;
75038;SDS011;63609;49.992;14.512;2024-03-29T12:53:15;1.05;;;0.52;;
75038;SDS011;63609;49.992;14.512;2024-03-29T12:55:45;0.47;;;0.38;;
75038;SDS011;63609;49.992;14.512;2024-03-29T12:58:12;1.20;;;0.50;;
75038;SDS011;63609;49.992;14.512;2024-03-29T13:00:39;1.70;;;0.60;;
75038;SDS011;63609;49.992;14.512;2024-03-29T13:03:06;1.48;;;0.50;;
75038;SDS011;63609;49.992;14.512;2024-03-29T13:05:33;2.58;;;0.60;;
75038;SDS011;63609;49.992;14.512;2024-03-29T13:08:03;1.50;;;0.55;;
75038;SDS011;63609;49.992;14.512;2024-03-29T13:10:30;2.08;;;0.63;;
75038;SDS011;63609;49.992;14.512;2024-03-29T13:12:57;4.65;;;0.63;;
75038;SDS011;63609;49.992;14.512;2024-03-29T13:15:23;0.95;;;0.50;;
75038;SDS011;63609;49.992;14.512;2024-03-29T13:17:54;1.95;;;0.50;;
75038;SDS011;63609;49.992;14.512;2024-03-29T13:20:21;1.88;;;0.60;;
75038;SDS011;63609;49.992;14.512;2024-03-29T13:22:49;1.17;;;0.50;;
75038;SDS011;63609;49.992;14.512;2024-03-29T13:25:16;0.98;;;0.50;;
75038;SDS011;63609;49.992;14.512;2024-03-29T13:27:45;1.20;;;0.60;;
75038;SDS011;63609;49.992;14.512;2024-03-29T13:30:14;1.67;;;0.50;;
75038;SDS011;63609;49.992;14.512;2024-03-29T13:32:41;1.13;;;0.50;;
75038;SDS011;63609;49.992;14.512;2024-03-29T13:35:10;1.15;;;0.60;;
75038;SDS011;63609;49.992;14.512;2024-03-29T13:40:06;1.25;;;0.50;;
75038;SDS011;63609;49.992;14.512;2024-03-29T13:42:33;1.95;;;0.45;;
75038;SDS011;63609;49.992;14.512;2024-03-29T13:45:00;1.10;;;0.47;;
75038;SDS011;63609;49.992;14.512;2024-03-29T13:47:26;1.60;;;0.93;;
75038;SDS011;63609;49.992;14.512;2024-03-29T13:49:52;1.35;;;0.60;;
75038;SDS011;63609;49.992;14.512;2024-03-29T13:52:20;1.90;;;0.60;;
75038;SDS011;63609;49.992;14.512;2024-03-29T13:54:46;1.00;;;0.40;;
75038;SDS011;63609;49.992;14.512;2024-03-29T13:57:15;0.88;;;0.38;;
75038;SDS011;63609;49.992;14.512;2024-03-29T13:59:45;0.98;;;0.50;;
75038;SDS011;63609;49.992;14.512;2024-03-29T14:02:11;1.25;;;0.40;;
75038;SDS011;63609;49.992;14.512;2024-03-29T14:04:39;1.73;;;0.80;;
75038;SDS011;63609;49.992;14.512;2024-03-29T14:07:05;1.02;;;0.43;;
75038;SDS011;63609;49.992;14.512;2024-03-29T14:09:39;0.85;;;0.40;;
75038;SDS011;63609;49.992;14.512;2024-03-29T14:12:06;1.00;;;0.50;;
75038;SDS011;63609;49.992;14.512;2024-03-29T14:14:33;1.25;;;0.40;;
75038;SDS011;63609;49.992;14.512;2024-03-29T14:16:59;0.40;;;0.30;;
75038;SDS011;63609;49.992;14.512;2024-03-29T14:19:35;1.38;;;0.43;;
75038;SDS011;63609;49.992;14.512;2024-03-29T14:22:02;1.30;;;0.50;;
75038;SDS011;63609;49.992;14.512;2024-03-29T14:24:29;1.27;;;0.43;;
75038;SDS011;63609;49.992;14.512;2024-03-29T14:26:58;1.13;;;0.45;;
75038;SDS011;63609;49.992;14.512;2024-03-29T14:29:25;0.50;;;0.38;;
75038;SDS011;63609;49.992;14.512;2024-03-29T14:31:51;1.30;;;0.50;;
75038;SDS011;63609;49.992;14.512;2024-03-29T14:34:19;0.80;;;0.30;;
75038;SDS011;63609;49.992;14.512;2024-03-29T14:36:45;0.75;;;0.40;;
75038;SDS011;63609;49.992;14.512;2024-03-29T14:41:41;0.70;;;0.43;;
75038;SDS011;63609;49.992;14.512;2024-03-29T14:44:08;1.02;;;0.40;;
75038;SDS011;63609;49.992;14.512;2024-03-29T14:46:34;2.42;;;0.50;;
75038;SDS011;63609;49.992;14.512;2024-03-29T14:49:01;0.88;;;0.50;;
75038;SDS011;63609;49.992;14.512;2024-03-29T14:51:33;1.38;;;0.30;;
75038;SDS011;63609;49.992;14.512;2024-03-29T14:53:59;1.15;;;0.50;;
75038;SDS011;63609;49.992;14.512;2024-03-29T14:56:28;1.23;;;0.40;;
75038;SDS011;63609;49.992;14.512;2024-03-29T14:59:02;1.95;;;0.68;;
75038;SDS011;63609;49.992;14.512;2024-03-29T15:01:31;0.88;;;0.30;;
75038;SDS011;63609;49.992;14.512;2024-03-29T15:03:57;1.05;;;0.50;;
75038;SDS011;63609;49.992;14.512;2024-03-29T15:06:23;0.70;;;0.40;;
75038;SDS011;63609;49.992;14.512;2024-03-29T15:08:50;0.65;;;0.40;;
75038;SDS011;63609;49.992;14.512;2024-03-29T15:11:18;0.40;;;0.28;;